sensor_id;sensor_type;location;lat;lon;timestamp;P1;durP1;ratioP1;P2;durP2;ratioP2
56183;SDS011;42086;53.170;6.980;2022-09-02T00:04:09;2.53;;;1.88;;
56183;SDS011;42086;53.170;6.980;2022-09-02T00:06:40;3.55;;;1.88;;
56183;SDS011;42086;53.170;6.980;2022-09-02T00:09:07;1.77;;;1.60;;
56183;SDS011;42086;53.170;6.980;2022-09-02T00:11:36;2.45;;;1.77;;
56183;SDS011;42086;53.170;6.980;2022-09-02T00:14:05;6.13;;;2.00;;
56183;SDS011;42086;53.170;6.980;2022-09-02T00:16:35;4.65;;;2.88;;
56183;SDS011;42086;53.170;6.980;2022-09-02T00:19:02;2.53;;;1.90;;
56183;SDS011;42086;53.170;6.980;2022-09-02T00:21:29;1.75;;;1.65;;
56183;SDS011;42086;53.170;6.980;2022-09-02T00:23:58;2.58;;;1.77;;
56183;SDS011;42086;53.170;6.980;2022-09-02T00:26:29;4.55;;;1.80;;
56183;SDS011;42086;53.170;6.980;2022-09-02T00:28:55;3.47;;;1.63;;
56183;SDS011;42086;53.170;6.980;2022-09-02T00:31:21;1.95;;;1.77;;
56183;SDS011;42086;53.170;6.980;2022-09-02T00:33:48;3.75;;;1.88;;
56183;SDS011;42086;53.170;6.980;2022-09-02T00:36:15;1.60;;;1.50;;
56183;SDS011;42086;53.170;6.980;2022-09-02T00:38:42;2.05;;;1.77;;
56183;SDS011;42086;53.170;6.980;2022-09-02T00:41:08;3.20;;;1.77;;
56183;SDS011;42086;53.170;6.980;2022-09-02T00:46:04;1.98;;;1.80;;
56183;SDS011;42086;53.170;6.980;2022-09-02T00:48:30;3.05;;;2.30;;
56183;SDS011;42086;53.170;6.980;2022-09-02T00:50:56;1.85;;;1.67;;
56183;SDS011;42086;53.170;6.980;2022-09-02T00:53:22;2.70;;;1.83;;
56183;SDS011;42086;53.170;6.980;2022-09-02T00:55:50;2.83;;;1.80;;
56183;SDS011;42086;53.170;6.980;2022-09-02T00:58:21;2.20;;;1.92;;
56183;SDS011;42086;53.170;6.980;2022-09-02T01:00:51;1.90;;;1.60;;
56183;SDS011;42086;53.170;6.980;2022-09-02T01:03:22;2.25;;;1.90;;
56183;SDS011;42086;53.170;6.980;2022-09-02T01:05:50;2.50;;;1.80;;
56183;SDS011;42086;53.170;6.980;2022-09-02T01:08:19;2.03;;;1.77;;
56183;SDS011;42086;53.170;6.980;2022-09-02T01:10:49;2.30;;;2.10;;
56183;SDS011;42086;53.170;6.980;2022-09-02T01:13:18;1.98;;;1.85;;
56183;SDS011;42086;53.170;6.980;2022-09-02T01:15:47;3.42;;;1.90;;
56183;SDS011;42086;53.170;6.980;2022-09-02T01:18:17;2.72;;;1.65;;
56183;SDS011;42086;53.170;6.980;2022-09-02T01:20:49;2.28;;;1.80;;
56183;SDS011;42086;53.170;6.980;2022-09-02T01:23:15;2.10;;;2.00;;
56183;SDS011;42086;53.170;6.980;2022-09-02T01:25:42;2.20;;;2.00;;
56183;SDS011;42086;53.170;6.980;2022-09-02T01:28:13;2.35;;;2.10;;
56183;SDS011;42086;53.170;6.980;2022-09-02T01:30:42;2.08;;;1.88;;
56183;SDS011;42086;53.170;6.980;2022-09-02T01:33:10;2.92;;;1.90;;
56183;SDS011;42086;53.170;6.980;2022-09-02T01:35:36;2.58;;;1.90;;
56183;SDS011;42086;53.170;6.980;2022-09-02T01:38:02;2.10;;;1.90;;
56183;SDS011;42086;53.170;6.980;2022-09-02T01:40:30;2.50;;;1.95;;
56183;SDS011;42086;53.170;6.980;2022-09-02T01:43:10;2.60;;;2.10;;
56183;SDS011;42086;53.170;6.980;2022-09-02T01:45:39;5.18;;;2.00;;
56183;SDS011;42086;53.170;6.980;2022-09-02T01:48:06;2.08;;;1.77;;
56183;SDS011;42086;53.170;6.980;2022-09-02T01:50:34;3.55;;;2.00;;
56183;SDS011;42086;53.170;6.980;2022-09-02T01:53:02;3.05;;;2.17;;
56183;SDS011;42086;53.170;6.980;2022-09-02T01:55:29;2.33;;;2.08;;
56183;SDS011;42086;53.170;6.980;2022-09-02T01:57:55;2.58;;;1.90;;
56183;SDS011;42086;53.170;6.980;2022-09-02T02:00:22;5.10;;;2.35;;
56183;SDS011;42086;53.170;6.980;2022-09-02T02:02:48;3.70;;;1.98;;
56183;SDS011;42086;53.170;6.980;2022-09-02T02:05:15;2.85;;;2.00;;
56183;SDS011;42086;53.170;6.980;2022-09-02T02:07:42;2.38;;;1.98;;
56183;SDS011;42086;53.170;6.980;2022-09-02T02:10:08;3.63;;;2.35;;
56183;SDS011;42086;53.170;6.980;2022-09-02T02:12:36;2.70;;;2.20;;
56183;SDS011;42086;53.170;6.980;2022-09-02T02:15:03;3.35;;;2.17;;
56183;SDS011;42086;53.170;6.980;2022-09-02T02:17:30;4.60;;;2.20;;
56183;SDS011;42086;53.170;6.980;2022-09-02T02:19:56;3.00;;;2.30;;
56183;SDS011;42086;53.170;6.980;2022-09-02T02:22:22;3.25;;;2.00;;
56183;SDS011;42086;53.170;6.980;2022-09-02T02:24:48;2.58;;;2.38;;
56183;SDS011;42086;53.170;6.980;2022-09-02T02:27:14;3.25;;;2.20;;
56183;SDS011;42086;53.170;6.980;2022-09-02T02:29:40;2.30;;;2.10;;
56183;SDS011;42086;53.170;6.980;2022-09-02T02:32:05;2.03;;;1.92;;
56183;SDS011;42086;53.170;6.980;2022-09-02T02:34:32;2.40;;;2.20;;
56183;SDS011;42086;53.170;6.980;2022-09-02T02:36:58;3.03;;;2.30;;
56183;SDS011;42086;53.170;6.980;2022-09-02T02:39:24;2.80;;;2.50;;
56183;SDS011;42086;53.170;6.980;2022-09-02T02:41:53;2.75;;;2.17;;
56183;SDS011;42086;53.170;6.980;2022-09-02T02:44:19;3.85;;;2.20;;
56183;SDS011;42086;53.170;6.980;2022-09-02T02:46:45;2.30;;;2.08;;
56183;SDS011;42086;53.170;6.980;2022-09-02T02:49:11;4.18;;;2.28;;
56183;SDS011;42086;53.170;6.980;2022-09-02T02:51:37;2.28;;;2.08;;
56183;SDS011;42086;53.170;6.980;2022-09-02T02:54:03;3.13;;;2.20;;
56183;SDS011;42086;53.170;6.980;2022-09-02T02:56:30;2.28;;;2.00;;
56183;SDS011;42086;53.170;6.980;2022-09-02T02:58:56;2.95;;;2.22;;
56183;SDS011;42086;53.170;6.980;2022-09-02T03:01:24;3.50;;;2.10;;
56183;SDS011;42086;53.170;6.980;2022-09-02T03:03:50;3.47;;;2.03;;
56183;SDS011;42086;53.170;6.980;2022-09-02T03:06:18;2.58;;;2.03;;
56183;SDS011;42086;53.170;6.980;2022-09-02T03:08:44;3.10;;;2.40;;
56183;SDS011;42086;53.170;6.980;2022-09-02T03:11:12;2.85;;;2.20;;
56183;SDS011;42086;53.170;6.980;2022-09-02T03:13:39;2.92;;;2.33;;
56183;SDS011;42086;53.170;6.980;2022-09-02T03:16:05;2.40;;;2.20;;
56183;SDS011;42086;53.170;6.980;2022-09-02T03:18:32;3.58;;;1.95;;
56183;SDS011;42086;53.170;6.980;2022-09-02T03:20:58;2.67;;;2.10;;
56183;SDS011;42086;53.170;6.980;2022-09-02T03:23:24;2.72;;;1.75;;
56183;SDS011;42086;53.170;6.980;2022-09-02T03:25:50;2.58;;;2.10;;
56183;SDS011;42086;53.170;6.980;2022-09-02T03:28:16;3.30;;;2.20;;
56183;SDS011;42086;53.170;6.980;2022-09-02T03:30:43;5.32;;;2.53;;
56183;SDS011;42086;53.170;6.980;2022-09-02T03:33:10;2.53;;;2.25;;
56183;SDS011;42086;53.170;6.980;2022-09-02T03:35:40;2.88;;;2.55;;
56183;SDS011;42086;53.170;6.980;2022-09-02T03:38:08;4.45;;;2.40;;
56183;SDS011;42086;53.170;6.980;2022-09-02T03:40:35;2.47;;;2.10;;
56183;SDS011;42086;53.170;6.980;2022-09-02T03:43:01;2.80;;;2.33;;
56183;SDS011;42086;53.170;6.980;2022-09-02T03:45:28;3.08;;;2.20;;
56183;SDS011;42086;53.170;6.980;2022-09-02T03:47:54;3.17;;;2.20;;
56183;SDS011;42086;53.170;6.980;2022-09-02T03:50:22;3.15;;;2.22;;
56183;SDS011;42086;53.170;6.980;2022-09-02T03:52:50;3.83;;;2.40;;
56183;SDS011;42086;53.170;6.980;2022-09-02T03:55:16;4.32;;;2.45;;
56183;SDS011;42086;53.170;6.980;2022-09-02T03:57:43;2.20;;;2.00;;
56183;SDS011;42086;53.170;6.980;2022-09-02T04:00:10;4.47;;;2.40;;
56183;SDS011;42086;53.170;6.980;2022-09-02T04:02:37;4.38;;;2.50;;
56183;SDS011;42086;53.170;6.980;2022-09-02T04:05:04;4.55;;;2.50;;
56183;SDS011;42086;53.170;6.980;2022-09-02T04:07:31;2.45;;;2.25;;
56183;SDS011;42086;53.170;6.980;2022-09-02T04:09:56;2.88;;;2.60;;
56183;SDS011;42086;53.170;6.980;2022-09-02T04:12:25;2.70;;;2.50;;
56183;SDS011;42086;53.170;6.980;2022-09-02T04:14:51;2.58;;;2.20;;
56183;SDS011;42086;53.170;6.980;2022-09-02T04:17:17;5.40;;;2.47;;
56183;SDS011;42086;53.170;6.980;2022-09-02T04:19:43;3.38;;;2.60;;
56183;SDS011;42086;53.170;6.980;2022-09-02T04:22:09;3.33;;;2.40;;
56183;SDS011;42086;53.170;6.980;2022-09-02T04:24:35;2.78;;;2.45;;
56183;SDS011;42086;53.170;6.980;2022-09-02T04:27:01;7.10;;;2.85;;
56183;SDS011;42086;53.170;6.980;2022-09-02T04:29:27;2.92;;;2.40;;
56183;SDS011;42086;53.170;6.980;2022-09-02T04:31:53;5.47;;;2.55;;
56183;SDS011;42086;53.170;6.980;2022-09-02T04:34:19;3.00;;;2.55;;
56183;SDS011;42086;53.170;6.980;2022-09-02T04:36:44;3.00;;;2.45;;
56183;SDS011;42086;53.170;6.980;2022-09-02T04:39:10;2.60;;;2.40;;
56183;SDS011;42086;53.170;6.980;2022-09-02T04:41:37;2.22;;;2.00;;
56183;SDS011;42086;53.170;6.980;2022-09-02T04:44:03;3.47;;;2.38;;
56183;SDS011;42086;53.170;6.980;2022-09-02T04:46:31;3.05;;;2.35;;
56183;SDS011;42086;53.170;6.980;2022-09-02T04:48:57;5.00;;;2.72;;
56183;SDS011;42086;53.170;6.980;2022-09-02T04:51:23;2.78;;;2.45;;
56183;SDS011;42086;53.170;6.980;2022-09-02T04:53:50;3.90;;;2.50;;
56183;SDS011;42086;53.170;6.980;2022-09-02T04:56:21;2.95;;;2.45;;
56183;SDS011;42086;53.170;6.980;2022-09-02T04:58:49;2.88;;;2.35;;
56183;SDS011;42086;53.170;6.980;2022-09-02T05:01:17;4.53;;;2.70;;
56183;SDS011;42086;53.170;6.980;2022-09-02T05:03:45;2.85;;;2.47;;
56183;SDS011;42086;53.170;6.980;2022-09-02T05:06:13;8.85;;;3.83;;
56183;SDS011;42086;53.170;6.980;2022-09-02T05:08:41;8.25;;;2.50;;
56183;SDS011;42086;53.170;6.980;2022-09-02T05:11:08;3.47;;;2.75;;
56183;SDS011;42086;53.170;6.980;2022-09-02T05:13:35;2.88;;;2.58;;
56183;SDS011;42086;53.170;6.980;2022-09-02T05:16:02;4.53;;;2.38;;
56183;SDS011;42086;53.170;6.980;2022-09-02T05:18:28;2.80;;;2.50;;
56183;SDS011;42086;53.170;6.980;2022-09-02T05:20:55;4.75;;;2.80;;
56183;SDS011;42086;53.170;6.980;2022-09-02T05:23:21;2.95;;;2.75;;
56183;SDS011;42086;53.170;6.980;2022-09-02T05:25:47;2.85;;;2.53;;
56183;SDS011;42086;53.170;6.980;2022-09-02T05:28:12;2.60;;;2.40;;
56183;SDS011;42086;53.170;6.980;2022-09-02T05:30:39;3.28;;;2.53;;
56183;SDS011;42086;53.170;6.980;2022-09-02T05:33:07;3.42;;;2.58;;
56183;SDS011;42086;53.170;6.980;2022-09-02T05:35:38;4.43;;;2.50;;
56183;SDS011;42086;53.170;6.980;2022-09-02T05:38:07;3.05;;;2.60;;
56183;SDS011;42086;53.170;6.980;2022-09-02T05:40:35;3.83;;;2.53;;
56183;SDS011;42086;53.170;6.980;2022-09-02T05:43:02;3.30;;;2.60;;
56183;SDS011;42086;53.170;6.980;2022-09-02T05:45:28;2.50;;;2.30;;
56183;SDS011;42086;53.170;6.980;2022-09-02T05:47:54;4.80;;;2.40;;
56183;SDS011;42086;53.170;6.980;2022-09-02T05:50:20;4.68;;;2.85;;
56183;SDS011;42086;53.170;6.980;2022-09-02T05:52:48;4.07;;;2.80;;
56183;SDS011;42086;53.170;6.980;2022-09-02T05:55:15;2.85;;;2.60;;
56183;SDS011;42086;53.170;6.980;2022-09-02T05:57:41;6.90;;;2.70;;
56183;SDS011;42086;53.170;6.980;2022-09-02T06:00:10;2.60;;;2.40;;
56183;SDS011;42086;53.170;6.980;2022-09-02T06:02:36;3.65;;;2.78;;
56183;SDS011;42086;53.170;6.980;2022-09-02T06:05:02;4.15;;;2.60;;
56183;SDS011;42086;53.170;6.980;2022-09-02T06:07:28;3.55;;;2.30;;
56183;SDS011;42086;53.170;6.980;2022-09-02T06:10:00;5.25;;;2.47;;
56183;SDS011;42086;53.170;6.980;2022-09-02T06:12:26;4.30;;;2.67;;
56183;SDS011;42086;53.170;6.980;2022-09-02T06:14:55;2.78;;;2.55;;
56183;SDS011;42086;53.170;6.980;2022-09-02T06:17:20;3.88;;;2.90;;
56183;SDS011;42086;53.170;6.980;2022-09-02T06:19:49;6.32;;;2.60;;
56183;SDS011;42086;53.170;6.980;2022-09-02T06:22:15;3.58;;;2.70;;
56183;SDS011;42086;53.170;6.980;2022-09-02T06:24:41;3.28;;;2.60;;
56183;SDS011;42086;53.170;6.980;2022-09-02T06:27:07;4.82;;;2.63;;
56183;SDS011;42086;53.170;6.980;2022-09-02T06:29:33;3.85;;;2.70;;
56183;SDS011;42086;53.170;6.980;2022-09-02T06:31:59;2.60;;;2.40;;
56183;SDS011;42086;53.170;6.980;2022-09-02T06:34:25;2.83;;;2.50;;
56183;SDS011;42086;53.170;6.980;2022-09-02T06:36:51;4.07;;;2.38;;
56183;SDS011;42086;53.170;6.980;2022-09-02T06:39:18;2.70;;;2.50;;
56183;SDS011;42086;53.170;6.980;2022-09-02T06:41:46;2.70;;;2.30;;
56183;SDS011;42086;53.170;6.980;2022-09-02T06:44:13;4.88;;;2.53;;
56183;SDS011;42086;53.170;6.980;2022-09-02T06:46:42;2.67;;;2.45;;
56183;SDS011;42086;53.170;6.980;2022-09-02T06:49:10;3.65;;;2.55;;
56183;SDS011;42086;53.170;6.980;2022-09-02T06:51:38;2.60;;;2.20;;
56183;SDS011;42086;53.170;6.980;2022-09-02T06:54:06;7.78;;;2.80;;
56183;SDS011;42086;53.170;6.980;2022-09-02T06:56:34;8.15;;;2.50;;
56183;SDS011;42086;53.170;6.980;2022-09-02T06:59:01;3.35;;;2.50;;
56183;SDS011;42086;53.170;6.980;2022-09-02T07:01:28;6.82;;;2.35;;
56183;SDS011;42086;53.170;6.980;2022-09-02T07:03:56;4.65;;;2.55;;
56183;SDS011;42086;53.170;6.980;2022-09-02T07:06:42;5.72;;;2.63;;
56183;SDS011;42086;53.170;6.980;2022-09-02T07:09:11;3.30;;;2.30;;
56183;SDS011;42086;53.170;6.980;2022-09-02T07:11:39;5.50;;;2.20;;
56183;SDS011;42086;53.170;6.980;2022-09-02T07:14:06;3.97;;;2.40;;
56183;SDS011;42086;53.170;6.980;2022-09-02T07:16:33;2.50;;;2.25;;
56183;SDS011;42086;53.170;6.980;2022-09-02T07:19:02;3.17;;;2.40;;
56183;SDS011;42086;53.170;6.980;2022-09-02T07:21:29;3.72;;;2.40;;
56183;SDS011;42086;53.170;6.980;2022-09-02T07:23:59;2.85;;;2.55;;
56183;SDS011;42086;53.170;6.980;2022-09-02T07:26:25;3.35;;;2.30;;
56183;SDS011;42086;53.170;6.980;2022-09-02T07:28:52;2.55;;;2.35;;
56183;SDS011;42086;53.170;6.980;2022-09-02T07:31:18;2.95;;;2.03;;
56183;SDS011;42086;53.170;6.980;2022-09-02T07:33:44;3.03;;;2.05;;
56183;SDS011;42086;53.170;6.980;2022-09-02T07:36:11;4.35;;;1.95;;
56183;SDS011;42086;53.170;6.980;2022-09-02T07:38:38;2.20;;;1.80;;
56183;SDS011;42086;53.170;6.980;2022-09-02T07:41:04;2.78;;;1.98;;
56183;SDS011;42086;53.170;6.980;2022-09-02T07:43:32;4.55;;;2.15;;
56183;SDS011;42086;53.170;6.980;2022-09-02T07:45:58;2.75;;;2.10;;
56183;SDS011;42086;53.170;6.980;2022-09-02T07:48:25;5.38;;;2.10;;
56183;SDS011;42086;53.170;6.980;2022-09-02T07:50:53;3.53;;;2.20;;
56183;SDS011;42086;53.170;6.980;2022-09-02T07:53:19;3.05;;;2.10;;
56183;SDS011;42086;53.170;6.980;2022-09-02T07:55:45;2.63;;;1.98;;
56183;SDS011;42086;53.170;6.980;2022-09-02T07:58:12;3.40;;;2.17;;
56183;SDS011;42086;53.170;6.980;2022-09-02T08:00:39;5.60;;;2.30;;
56183;SDS011;42086;53.170;6.980;2022-09-02T08:03:06;3.80;;;2.40;;
56183;SDS011;42086;53.170;6.980;2022-09-02T08:05:33;4.00;;;2.25;;
56183;SDS011;42086;53.170;6.980;2022-09-02T08:08:00;3.47;;;2.33;;
56183;SDS011;42086;53.170;6.980;2022-09-02T08:10:26;7.80;;;2.38;;
56183;SDS011;42086;53.170;6.980;2022-09-02T08:12:57;3.65;;;2.30;;
56183;SDS011;42086;53.170;6.980;2022-09-02T08:15:27;2.92;;;2.33;;
56183;SDS011;42086;53.170;6.980;2022-09-02T08:17:55;2.65;;;2.35;;
56183;SDS011;42086;53.170;6.980;2022-09-02T08:20:21;3.97;;;2.50;;
56183;SDS011;42086;53.170;6.980;2022-09-02T08:22:47;4.93;;;2.55;;
56183;SDS011;42086;53.170;6.980;2022-09-02T08:25:13;6.25;;;2.75;;
56183;SDS011;42086;53.170;6.980;2022-09-02T08:27:42;3.30;;;2.67;;
56183;SDS011;42086;53.170;6.980;2022-09-02T08:30:08;2.78;;;2.40;;
56183;SDS011;42086;53.170;6.980;2022-09-02T08:32:35;3.53;;;2.40;;
56183;SDS011;42086;53.170;6.980;2022-09-02T08:35:02;4.43;;;2.60;;
56183;SDS011;42086;53.170;6.980;2022-09-02T08:37:29;4.63;;;2.40;;
56183;SDS011;42086;53.170;6.980;2022-09-02T08:39:56;4.22;;;2.67;;
56183;SDS011;42086;53.170;6.980;2022-09-02T08:42:23;3.70;;;2.72;;
56183;SDS011;42086;53.170;6.980;2022-09-02T08:47:50;3.58;;;2.50;;
56183;SDS011;42086;53.170;6.980;2022-09-02T08:50:25;2.88;;;2.60;;
56183;SDS011;42086;53.170;6.980;2022-09-02T08:55:46;3.63;;;2.50;;
56183;SDS011;42086;53.170;6.980;2022-09-02T08:58:16;4.32;;;2.63;;
56183;SDS011;42086;53.170;6.980;2022-09-02T09:00:46;5.70;;;2.47;;
56183;SDS011;42086;53.170;6.980;2022-09-02T09:03:32;3.05;;;2.33;;
56183;SDS011;42086;53.170;6.980;2022-09-02T09:06:14;3.75;;;2.30;;
56183;SDS011;42086;53.170;6.980;2022-09-02T09:08:55;3.38;;;2.03;;
56183;SDS011;42086;53.170;6.980;2022-09-02T09:11:44;3.70;;;2.40;;
56183;SDS011;42086;53.170;6.980;2022-09-02T09:19:48;6.32;;;2.33;;
56183;SDS011;42086;53.170;6.980;2022-09-02T09:22:19;7.13;;;2.53;;
56183;SDS011;42086;53.170;6.980;2022-09-02T09:27:16;2.63;;;2.00;;
56183;SDS011;42086;53.170;6.980;2022-09-02T09:29:47;2.42;;;1.90;;
56183;SDS011;42086;53.170;6.980;2022-09-02T09:32:30;6.10;;;2.20;;
56183;SDS011;42086;53.170;6.980;2022-09-02T09:35:09;2.53;;;2.13;;
56183;SDS011;42086;53.170;6.980;2022-09-02T09:37:41;3.95;;;2.17;;
56183;SDS011;42086;53.170;6.980;2022-09-02T09:42:54;3.20;;;2.20;;
56183;SDS011;42086;53.170;6.980;2022-09-02T09:45:31;4.57;;;2.55;;
56183;SDS011;42086;53.170;6.980;2022-09-02T09:51:25;4.35;;;2.50;;
56183;SDS011;42086;53.170;6.980;2022-09-02T09:53:37;4.45;;;2.10;;
56183;SDS011;42086;53.170;6.980;2022-09-02T09:58:43;2.78;;;2.00;;
56183;SDS011;42086;53.170;6.980;2022-09-02T10:04:29;4.60;;;2.30;;
56183;SDS011;42086;53.170;6.980;2022-09-02T10:09:02;6.03;;;2.58;;
56183;SDS011;42086;53.170;6.980;2022-09-02T10:12:00;3.70;;;2.20;;
56183;SDS011;42086;53.170;6.980;2022-09-02T10:17:14;4.00;;;2.47;;
56183;SDS011;42086;53.170;6.980;2022-09-02T10:28:45;3.75;;;2.40;;
56183;SDS011;42086;53.170;6.980;2022-09-02T10:36:10;4.63;;;2.28;;
56183;SDS011;42086;53.170;6.980;2022-09-02T10:38:51;4.65;;;2.00;;
56183;SDS011;42086;53.170;6.980;2022-09-02T10:44:19;2.50;;;1.98;;
56183;SDS011;42086;53.170;6.980;2022-09-02T10:47:02;4.40;;;2.30;;
56183;SDS011;42086;53.170;6.980;2022-09-02T10:49:41;6.20;;;2.17;;
56183;SDS011;42086;53.170;6.980;2022-09-02T10:52:36;2.92;;;2.05;;
56183;SDS011;42086;53.170;6.980;2022-09-02T10:55:47;3.47;;;1.40;;
56183;SDS011;42086;53.170;6.980;2022-09-02T10:58:39;4.00;;;1.65;;
56183;SDS011;42086;53.170;6.980;2022-09-02T11:01:10;2.83;;;1.73;;
56183;SDS011;42086;53.170;6.980;2022-09-02T11:04:07;2.72;;;1.65;;
56183;SDS011;42086;53.170;6.980;2022-09-02T11:06:52;3.45;;;1.58;;
56183;SDS011;42086;53.170;6.980;2022-09-02T11:12:12;2.42;;;1.60;;
56183;SDS011;42086;53.170;6.980;2022-09-02T11:15:00;2.30;;;1.48;;
56183;SDS011;42086;53.170;6.980;2022-09-02T11:20:29;2.35;;;1.60;;
56183;SDS011;42086;53.170;6.980;2022-09-02T11:28:35;3.33;;;1.50;;
56183;SDS011;42086;53.170;6.980;2022-09-02T11:31:05;1.83;;;1.40;;
56183;SDS011;42086;53.170;6.980;2022-09-02T11:36:15;2.08;;;1.40;;
56183;SDS011;42086;53.170;6.980;2022-09-02T11:53:25;3.35;;;1.20;;
56183;SDS011;42086;53.170;6.980;2022-09-02T11:56:04;2.05;;;1.30;;
56183;SDS011;42086;53.170;6.980;2022-09-02T11:58:38;1.70;;;1.10;;
56183;SDS011;42086;53.170;6.980;2022-09-02T12:04:01;1.55;;;1.20;;
56183;SDS011;42086;53.170;6.980;2022-09-02T12:06:30;2.92;;;1.27;;
56183;SDS011;42086;53.170;6.980;2022-09-02T12:08:57;4.90;;;1.38;;
56183;SDS011;42086;53.170;6.980;2022-09-02T12:16:58;5.63;;;1.42;;
56183;SDS011;42086;53.170;6.980;2022-09-02T12:19:44;1.92;;;1.17;;
56183;SDS011;42086;53.170;6.980;2022-09-02T12:24:52;5.80;;;1.20;;
56183;SDS011;42086;53.170;6.980;2022-09-02T12:27:35;4.55;;;1.50;;
56183;SDS011;42086;53.170;6.980;2022-09-02T12:30:05;4.07;;;1.20;;
56183;SDS011;42086;53.170;6.980;2022-09-02T12:35:34;3.72;;;1.05;;
56183;SDS011;42086;53.170;6.980;2022-09-02T12:38:23;3.78;;;1.20;;
56183;SDS011;42086;53.170;6.980;2022-09-02T12:41:20;1.98;;;0.90;;
56183;SDS011;42086;53.170;6.980;2022-09-02T12:49:12;4.15;;;1.45;;
56183;SDS011;42086;53.170;6.980;2022-09-02T12:51:55;3.15;;;1.13;;
56183;SDS011;42086;53.170;6.980;2022-09-02T12:54:26;2.10;;;1.20;;
56183;SDS011;42086;53.170;6.980;2022-09-02T12:57:00;2.47;;;1.50;;
56183;SDS011;42086;53.170;6.980;2022-09-02T12:59:36;2.42;;;0.88;;
56183;SDS011;42086;53.170;6.980;2022-09-02T13:02:16;3.13;;;1.10;;
56183;SDS011;42086;53.170;6.980;2022-09-02T13:10:54;2.25;;;1.10;;
56183;SDS011;42086;53.170;6.980;2022-09-02T13:16:38;1.95;;;1.10;;
56183;SDS011;42086;53.170;6.980;2022-09-02T13:19:21;2.88;;;1.00;;
56183;SDS011;42086;53.170;6.980;2022-09-02T13:28:12;8.73;;;1.25;;
56183;SDS011;42086;53.170;6.980;2022-09-02T13:31:22;2.80;;;1.00;;
56183;SDS011;42086;53.170;6.980;2022-09-02T13:34:25;1.35;;;1.10;;
56183;SDS011;42086;53.170;6.980;2022-09-02T13:36:44;1.23;;;1.13;;
56183;SDS011;42086;53.170;6.980;2022-09-02T13:39:23;3.25;;;1.00;;
56183;SDS011;42086;53.170;6.980;2022-09-02T13:41:51;2.70;;;0.95;;
56183;SDS011;42086;53.170;6.980;2022-09-02T13:44:21;2.88;;;1.33;;
56183;SDS011;42086;53.170;6.980;2022-09-02T13:46:53;1.67;;;1.00;;
56183;SDS011;42086;53.170;6.980;2022-09-02T13:49:26;4.18;;;1.30;;
56183;SDS011;42086;53.170;6.980;2022-09-02T13:51:57;2.33;;;1.38;;
56183;SDS011;42086;53.170;6.980;2022-09-02T13:54:33;3.35;;;1.10;;
56183;SDS011;42086;53.170;6.980;2022-09-02T13:57:12;3.15;;;1.20;;
56183;SDS011;42086;53.170;6.980;2022-09-02T13:59:52;2.65;;;1.20;;
56183;SDS011;42086;53.170;6.980;2022-09-02T14:02:26;2.53;;;1.02;;
56183;SDS011;42086;53.170;6.980;2022-09-02T14:07:48;2.75;;;1.27;;
56183;SDS011;42086;53.170;6.980;2022-09-02T14:10:18;2.47;;;1.30;;
56183;SDS011;42086;53.170;6.980;2022-09-02T14:12:46;4.03;;;1.20;;
56183;SDS011;42086;53.170;6.980;2022-09-02T14:15:14;3.15;;;1.17;;
56183;SDS011;42086;53.170;6.980;2022-09-02T14:17:41;3.83;;;1.10;;
56183;SDS011;42086;53.170;6.980;2022-09-02T14:22:39;1.83;;;0.98;;
56183;SDS011;42086;53.170;6.980;2022-09-02T14:25:14;4.20;;;1.20;;
56183;SDS011;42086;53.170;6.980;2022-09-02T14:27:57;5.70;;;1.33;;
56183;SDS011;42086;53.170;6.980;2022-09-02T14:30:34;3.30;;;1.10;;
56183;SDS011;42086;53.170;6.980;2022-09-02T14:38:25;3.70;;;1.23;;
56183;SDS011;42086;53.170;6.980;2022-09-02T14:40:59;3.00;;;1.10;;
56183;SDS011;42086;53.170;6.980;2022-09-02T14:43:44;3.63;;;1.20;;
56183;SDS011;42086;53.170;6.980;2022-09-02T14:46:32;3.88;;;1.50;;
56183;SDS011;42086;53.170;6.980;2022-09-02T14:51:38;2.42;;;1.13;;
56183;SDS011;42086;53.170;6.980;2022-09-02T14:57:04;3.10;;;1.20;;
56183;SDS011;42086;53.170;6.980;2022-09-02T14:59:43;6.32;;;1.30;;
56183;SDS011;42086;53.170;6.980;2022-09-02T15:02:18;2.28;;;1.40;;
56183;SDS011;42086;53.170;6.980;2022-09-02T15:04:55;2.08;;;1.40;;
56183;SDS011;42086;53.170;6.980;2022-09-02T15:07:22;1.92;;;1.33;;
56183;SDS011;42086;53.170;6.980;2022-09-02T15:09:49;4.32;;;1.20;;
56183;SDS011;42086;53.170;6.980;2022-09-02T15:12:20;4.03;;;1.30;;
56183;SDS011;42086;53.170;6.980;2022-09-02T15:14:53;3.83;;;1.35;;
56183;SDS011;42086;53.170;6.980;2022-09-02T15:17:19;3.15;;;1.38;;
56183;SDS011;42086;53.170;6.980;2022-09-02T15:19:46;2.78;;;1.50;;
56183;SDS011;42086;53.170;6.980;2022-09-02T15:22:12;3.83;;;1.40;;
56183;SDS011;42086;53.170;6.980;2022-09-02T15:24:39;2.50;;;1.35;;
56183;SDS011;42086;53.170;6.980;2022-09-02T15:27:07;2.50;;;1.50;;
56183;SDS011;42086;53.170;6.980;2022-09-02T15:29:34;2.65;;;1.60;;
56183;SDS011;42086;53.170;6.980;2022-09-02T15:32:00;2.40;;;1.30;;
56183;SDS011;42086;53.170;6.980;2022-09-02T15:34:28;4.03;;;1.50;;
56183;SDS011;42086;53.170;6.980;2022-09-02T15:36:55;3.50;;;1.92;;
56183;SDS011;42086;53.170;6.980;2022-09-02T15:39:21;3.00;;;1.70;;
56183;SDS011;42086;53.170;6.980;2022-09-02T15:41:48;4.43;;;1.20;;
56183;SDS011;42086;53.170;6.980;2022-09-02T15:44:15;3.40;;;1.52;;
56183;SDS011;42086;53.170;6.980;2022-09-02T15:46:42;2.88;;;1.50;;
56183;SDS011;42086;53.170;6.980;2022-09-02T15:49:09;3.28;;;1.40;;
56183;SDS011;42086;53.170;6.980;2022-09-02T15:51:37;2.88;;;1.20;;
56183;SDS011;42086;53.170;6.980;2022-09-02T15:54:09;3.65;;;1.42;;
56183;SDS011;42086;53.170;6.980;2022-09-02T15:56:37;3.20;;;1.30;;
56183;SDS011;42086;53.170;6.980;2022-09-02T15:59:05;4.72;;;1.35;;
56183;SDS011;42086;53.170;6.980;2022-09-02T16:01:37;3.83;;;1.38;;
56183;SDS011;42086;53.170;6.980;2022-09-02T16:04:08;3.92;;;1.40;;
56183;SDS011;42086;53.170;6.980;2022-09-02T16:06:36;2.33;;;1.30;;
56183;SDS011;42086;53.170;6.980;2022-09-02T16:09:06;4.63;;;1.30;;
56183;SDS011;42086;53.170;6.980;2022-09-02T16:11:36;2.70;;;1.27;;
56183;SDS011;42086;53.170;6.980;2022-09-02T16:14:03;2.35;;;1.40;;
56183;SDS011;42086;53.170;6.980;2022-09-02T16:16:30;2.85;;;1.40;;
56183;SDS011;42086;53.170;6.980;2022-09-02T16:18:56;3.30;;;1.30;;
56183;SDS011;42086;53.170;6.980;2022-09-02T16:21:22;1.63;;;1.50;;
56183;SDS011;42086;53.170;6.980;2022-09-02T16:23:48;1.40;;;1.30;;
56183;SDS011;42086;53.170;6.980;2022-09-02T16:28:48;2.63;;;1.40;;
56183;SDS011;42086;53.170;6.980;2022-09-02T16:31:16;3.95;;;1.52;;
56183;SDS011;42086;53.170;6.980;2022-09-02T16:33:49;2.33;;;1.38;;
56183;SDS011;42086;53.170;6.980;2022-09-02T16:36:20;7.43;;;1.38;;
56183;SDS011;42086;53.170;6.980;2022-09-02T16:38:47;8.63;;;2.05;;
56183;SDS011;42086;53.170;6.980;2022-09-02T16:41:23;4.35;;;1.40;;
56183;SDS011;42086;53.170;6.980;2022-09-02T16:43:54;4.82;;;1.58;;
56183;SDS011;42086;53.170;6.980;2022-09-02T16:46:22;3.45;;;1.33;;
56183;SDS011;42086;53.170;6.980;2022-09-02T16:48:48;4.15;;;1.35;;
56183;SDS011;42086;53.170;6.980;2022-09-02T16:51:15;4.05;;;1.40;;
56183;SDS011;42086;53.170;6.980;2022-09-02T16:53:41;1.95;;;1.52;;
56183;SDS011;42086;53.170;6.980;2022-09-02T16:56:11;2.15;;;1.20;;
56183;SDS011;42086;53.170;6.980;2022-09-02T16:58:38;4.95;;;1.50;;
56183;SDS011;42086;53.170;6.980;2022-09-02T17:01:06;3.25;;;1.40;;
56183;SDS011;42086;53.170;6.980;2022-09-02T17:03:36;3.60;;;1.60;;
56183;SDS011;42086;53.170;6.980;2022-09-02T17:06:03;4.57;;;1.20;;
56183;SDS011;42086;53.170;6.980;2022-09-02T17:08:29;2.25;;;1.20;;
56183;SDS011;42086;53.170;6.980;2022-09-02T17:13:40;7.93;;;1.42;;
56183;SDS011;42086;53.170;6.980;2022-09-02T17:16:06;3.72;;;1.38;;
56183;SDS011;42086;53.170;6.980;2022-09-02T17:18:33;5.18;;;1.75;;
56183;SDS011;42086;53.170;6.980;2022-09-02T17:21:09;6.38;;;1.58;;